Time;durP1;ratioP1;P1;durP2;ratioP2;P2;SDS_P1;SDS_P2;PMS_P1;PMS_P2;Temp;Humidity;BMP_temperature;BMP_pressure;BME280_temperature;BME280_humidity;BME280_pressure;Samples;Min_cycle;Max_cycle;Signal;HPM_P1;HPM_P2
2023/05/04 00:01:59;;;;;;;10.07;3.20;;;7.10;99.90;;;;;;5198640;28;20537;-50
2023/05/04 00:04:30;;;;;;;6.43;3.70;;;7.20;99.90;;;;;;5199933;28;20191;-49
2023/05/04 00:07:00;;;;;;;10.90;5.70;;;7.10;99.90;;;;;;5199007;28;20652;-50
2023/05/04 00:09:31;;;;;;;3.77;2.80;;;7.10;99.90;;;;;;5202063;28;20365;-50
2023/05/04 00:12:02;;;;;;;8.40;3.67;;;7.00;99.90;;;;;;5202299;28;20690;-50
2023/05/04 00:14:32;;;;;;;4.00;3.47;;;6.90;99.90;;;;;;5202745;28;20217;-51
2023/05/04 00:17:05;;;;;;;10.83;3.77;;;6.90;99.90;;;;;;5200689;28;20686;-50
2023/05/04 00:19:38;;;;;;;6.80;3.50;;;6.90;99.90;;;;;;5204126;28;20171;-49
2023/05/04 00:22:08;;;;;;;3.30;3.10;;;6.90;99.90;;;;;;5203396;28;20480;-49
2023/05/04 00:24:39;;;;;;;7.80;3.83;;;6.80;99.90;;;;;;5201341;28;20437;-49
2023/05/04 00:27:10;;;;;;;8.70;3.17;;;6.80;99.90;;;;;;5204033;28;20191;-50
2023/05/04 00:29:41;;;;;;;6.23;3.47;;;6.80;99.90;;;;;;5208344;28;20173;-50
2023/05/04 00:32:12;;;;;;;3.80;2.60;;;6.70;99.90;;;;;;5208529;28;20264;-51
2023/05/04 00:34:42;;;;;;;8.50;3.67;;;6.70;99.90;;;;;;5217106;28;20484;-50
2023/05/04 00:37:13;;;;;;;9.33;3.77;;;6.60;99.90;;;;;;5203510;28;20186;-49
2023/05/04 00:39:44;;;;;;;10.80;4.00;;;6.70;99.90;;;;;;5202710;28;20202;-50
2023/05/04 00:42:14;;;;;;;19.03;4.50;;;6.60;99.90;;;;;;5186264;28;20195;-49
2023/05/04 00:44:45;;;;;;;10.40;3.13;;;6.60;99.90;;;;;;5205319;28;20205;-50
2023/05/04 00:47:18;;;;;;;8.00;3.67;;;6.50;99.90;;;;;;5217713;28;20182;-50
2023/05/04 00:49:50;;;;;;;6.97;3.57;;;6.50;99.90;;;;;;5203847;28;20695;-51
2023/05/04 00:52:21;;;;;;;11.07;3.20;;;6.50;99.90;;;;;;5206096;28;20504;-52
2023/05/04 00:54:53;;;;;;;5.80;3.47;;;6.50;99.90;;;;;;5202079;28;20987;-50
2023/05/04 00:57:24;;;;;;;6.37;3.90;;;6.40;99.90;;;;;;5189821;28;20437;-51
2023/05/04 00:59:55;;;;;;;8.13;3.30;;;6.40;99.90;;;;;;5207430;28;20839;-51
2023/05/04 01:02:25;;;;;;;7.80;4.30;;;6.40;99.90;;;;;;5208046;28;20444;-49
2023/05/04 01:04:56;;;;;;;7.30;3.43;;;6.30;99.90;;;;;;5218239;28;20464;-50
2023/05/04 01:08:08;;;;;;;9.20;4.30;;;6.30;99.90;;;;;;5205512;28;20693;-50
2023/05/04 01:10:45;;;;;;;12.77;5.23;;;6.30;99.90;;;;;;5163269;28;20259;-49
2023/05/04 01:13:20;;;;;;;11.37;3.50;;;6.20;99.90;;;;;;5198558;28;20425;-51
2023/05/04 01:15:51;;;;;;;11.00;4.50;;;6.20;99.90;;;;;;5206472;28;20794;-50
2023/05/04 01:18:22;;;;;;;4.63;4.07;;;6.20;99.90;;;;;;5211840;28;20440;-50
2023/05/04 01:20:52;;;;;;;15.40;4.93;;;6.20;99.90;;;;;;5205895;28;20800;-50
2023/05/04 01:23:25;;;;;;;10.07;4.47;;;6.20;99.90;;;;;;5202056;28;20445;-50
2023/05/04 01:26:23;;;;;;;7.60;4.60;;;6.20;99.90;;;;;;5215242;28;20203;-49
2023/05/04 01:29:03;;;;;;;15.60;4.67;;;6.20;99.90;;;;;;5200134;28;20430;-51
2023/05/04 01:31:35;;;;;;;10.20;4.10;;;6.20;99.90;;;;;;5203519;28;20456;-50
2023/05/04 01:34:08;;;;;;;9.43;4.53;;;6.20;99.90;;;;;;5204260;28;20943;-50
2023/05/04 01:36:39;;;;;;;11.00;4.20;;;6.20;99.90;;;;;;5200427;28;20461;-49
2023/05/04 01:39:10;;;;;;;17.40;4.53;;;6.10;99.90;;;;;;5212260;28;20540;-49
2023/05/04 01:41:41;;;;;;;7.03;4.60;;;6.20;99.90;;;;;;5202252;28;20870;-49
2023/05/04 01:44:11;;;;;;;13.30;4.13;;;6.10;99.90;;;;;;5214316;28;20655;-50
2023/05/04 01:46:42;;;;;;;9.43;4.87;;;6.10;99.90;;;;;;5199061;28;20202;-52
2023/05/04 01:49:12;;;;;;;15.10;4.07;;;6.00;99.90;;;;;;5205973;28;20179;-50
2023/05/04 01:51:45;;;;;;;10.47;4.20;;;6.00;99.90;;;;;;5199694;28;20216;-50
2023/05/04 01:54:16;;;;;;;9.70;3.97;;;6.00;99.90;;;;;;5201428;28;20248;-50
2023/05/04 01:56:46;;;;;;;12.70;4.00;;;6.00;99.90;;;;;;5202502;28;20934;-50
2023/05/04 01:59:17;;;;;;;8.23;4.07;;;6.00;99.90;;;;;;5202515;28;20186;-49
2023/05/04 02:01:48;;;;;;;14.00;4.53;;;5.90;99.90;;;;;;5214896;28;20190;-51
2023/05/04 02:04:18;;;;;;;7.67;3.63;;;6.00;99.90;;;;;;5205523;28;20743;-51
2023/05/04 02:06:49;;;;;;;15.33;4.13;;;5.90;99.90;;;;;;5188609;28;20282;-49
2023/05/04 02:09:20;;;;;;;8.13;3.93;;;5.90;99.90;;;;;;5200241;28;20176;-50
2023/05/04 02:11:50;;;;;;;5.50;3.23;;;5.90;99.90;;;;;;5202838;28;20249;-50
2023/05/04 02:14:21;;;;;;;12.83;3.20;;;5.80;99.90;;;;;;5200520;28;20217;-52
2023/05/04 02:16:51;;;;;;;8.83;3.20;;;5.80;99.90;;;;;;5200291;28;20178;-50
2023/05/04 02:19:22;;;;;;;11.53;3.97;;;5.80;99.90;;;;;;5204993;28;20180;-51
2023/05/04 02:21:53;;;;;;;13.07;4.00;;;5.80;99.90;;;;;;5202973;28;20265;-49
2023/05/04 02:24:23;;;;;;;15.90;3.80;;;5.80;99.90;;;;;;5212955;28;20220;-50
2023/05/04 02:26:54;;;;;;;7.83;3.27;;;5.80;99.90;;;;;;5199973;28;20267;-51
2023/05/04 02:29:24;;;;;;;4.43;3.80;;;5.80;99.90;;;;;;5205606;28;20188;-49
2023/05/04 02:31:55;;;;;;;26.70;3.70;;;5.80;99.90;;;;;;5199487;28;20201;-50
2023/05/04 02:34:26;;;;;;;13.80;3.23;;;5.80;99.90;;;;;;5218848;28;20191;-49
2023/05/04 02:36:56;;;;;;;23.93;3.70;;;5.80;99.90;;;;;;5201676;28;20221;-50
2023/05/04 02:39:27;;;;;;;6.17;3.30;;;5.80;99.90;;;;;;5205370;28;20181;-49
2023/05/04 02:41:57;;;;;;;12.00;3.50;;;5.80;99.90;;;;;;5200429;28;20609;-50
2023/05/04 02:44:28;;;;;;;15.17;4.27;;;5.80;99.90;;;;;;5207278;28;20193;-49
2023/05/04 02:46:59;;;;;;;4.17;3.03;;;5.80;99.90;;;;;;5201927;28;20185;-49
2023/05/04 02:49:29;;;;;;;6.13;3.30;;;5.80;99.90;;;;;;5204238;28;20187;-53
2023/05/04 02:52:00;;;;;;;13.50;2.97;;;5.80;99.90;;;;;;5203194;28;20512;-51
2023/05/04 02:54:31;;;;;;;4.23;3.17;;;5.90;99.90;;;;;;5203885;28;20724;-51
2023/05/04 02:57:01;;;;;;;8.50;3.30;;;5.80;99.90;;;;;;5198469;28;20182;-49
2023/05/04 02:59:32;;;;;;;4.23;2.77;;;5.80;99.90;;;;;;5201958;28;20220;-50
2023/05/04 03:02:03;;;;;;;9.17;3.60;;;5.80;99.90;;;;;;5215611;28;20218;-50
2023/05/04 03:04:33;;;;;;;6.50;2.73;;;5.80;99.90;;;;;;5213725;28;20221;-51
2023/05/04 03:07:04;;;;;;;9.30;3.27;;;5.70;99.90;;;;;;5214058;28;20189;-50
2023/05/04 03:09:34;;;;;;;4.77;3.40;;;5.70;99.90;;;;;;5200874;28;20622;-50
2023/05/04 03:12:05;;;;;;;10.00;4.00;;;5.70;99.90;;;;;;5202186;28;20201;-50
2023/05/04 03:14:36;;;;;;;21.20;5.00;;;5.70;99.90;;;;;;5202124;28;20206;-50
2023/05/04 03:17:06;;;;;;;8.50;3.33;;;5.60;99.90;;;;;;5204571;28;20179;-50
2023/05/04 03:19:37;;;;;;;12.53;3.83;;;5.60;99.90;;;;;;5204814;28;20560;-50
2023/05/04 03:22:08;;;;;;;8.60;3.70;;;5.70;99.90;;;;;;5200321;28;20324;-51
2023/05/04 03:24:38;;;;;;;8.27;4.97;;;5.60;99.90;;;;;;5202745;28;20289;-50
2023/05/04 03:27:09;;;;;;;3.77;3.40;;;5.60;99.90;;;;;;5216471;28;20185;-50
2023/05/04 03:29:39;;;;;;;9.13;3.90;;;5.60;99.90;;;;;;5203280;28;20176;-49
2023/05/04 03:32:11;;;;;;;11.03;3.60;;;5.60;99.90;;;;;;5203638;28;20690;-50
2023/05/04 03:34:44;;;;;;;8.80;3.97;;;5.60;99.90;;;;;;5203430;28;20205;-50
2023/05/04 03:37:15;;;;;;;9.93;4.03;;;5.60;99.90;;;;;;5204115;28;20440;-49
2023/05/04 03:39:45;;;;;;;9.00;3.77;;;5.60;99.90;;;;;;5204873;28;20439;-50
2023/05/04 03:42:16;;;;;;;11.10;3.70;;;5.60;99.90;;;;;;5212582;28;20225;-52
2023/05/04 03:44:47;;;;;;;8.93;3.43;;;5.60;99.90;;;;;;5203135;28;20590;-50
2023/05/04 03:47:17;;;;;;;12.00;3.47;;;5.60;99.90;;;;;;5207297;28;20201;-49
2023/05/04 03:49:48;;;;;;;4.97;3.43;;;5.60;99.90;;;;;;5202873;28;20191;-52
2023/05/04 03:52:18;;;;;;;7.50;3.00;;;5.70;99.90;;;;;;5204736;28;20221;-52
2023/05/04 03:54:49;;;;;;;8.80;3.20;;;5.70;99.90;;;;;;5198647;28;20205;-50
2023/05/04 03:57:21;;;;;;;11.63;4.03;;;5.70;99.90;;;;;;5202813;28;20182;-50
2023/05/04 03:59:51;;;;;;;12.40;3.17;;;5.70;99.90;;;;;;5196962;28;20183;-50
2023/05/04 04:02:22;;;;;;;3.40;3.10;;;5.70;99.90;;;;;;5202419;28;20440;-49
2023/05/04 04:04:52;;;;;;;6.63;3.30;;;5.80;99.90;;;;;;5200261;28;20250;-49
2023/05/04 04:07:23;;;;;;;7.40;2.90;;;5.80;99.90;;;;;;5204940;28;20192;-48
2023/05/04 04:09:54;;;;;;;6.47;3.00;;;5.80;99.90;;;;;;5197535;28;20186;-49
2023/05/04 04:12:25;;;;;;;9.03;3.63;;;5.90;99.90;;;;;;5203165;28;20200;-49
2023/05/04 04:14:55;;;;;;;11.40;3.37;;;5.90;99.90;;;;;;5211108;28;20243;-49
2023/05/04 04:17:26;;;;;;;12.03;3.20;;;5.90;99.90;;;;;;5203067;28;20185;-49
2023/05/04 04:19:56;;;;;;;11.30;3.43;;;6.00;99.90;;;;;;5211527;28;20194;-50
2023/05/04 04:22:27;;;;;;;5.00;2.50;;;6.00;99.90;;;;;;5201086;28;20190;-50
2023/05/04 04:24:58;;;;;;;11.40;3.20;;;6.10;99.90;;;;;;5203063;28;20549;-51
2023/05/04 04:27:28;;;;;;;8.57;3.13;;;6.20;99.90;;;;;;5205094;28;20194;-50
2023/05/04 04:29:59;;;;;;;7.93;3.40;;;6.30;99.90;;;;;;5199200;28;20197;-50
2023/05/04 04:32:30;;;;;;;7.73;3.87;;;6.50;99.90;;;;;;5181007;28;20272;-50
2023/05/04 04:35:00;;;;;;;13.43;3.70;;;6.60;99.90;;;;;;5200949;28;21732;-51
2023/05/04 04:37:31;;;;;;;11.03;3.10;;;6.60;99.90;;;;;;5201784;28;20194;-51
2023/05/04 04:40:02;;;;;;;7.47;3.87;;;6.70;99.90;;;;;;5201147;28;20648;-53
2023/05/04 04:42:33;;;;;;;12.40;2.87;;;7.00;99.90;;;;;;5199397;28;20542;-51
2023/05/04 04:45:05;;;;;;;6.67;3.07;;;7.50;99.90;;;;;;5202725;28;20461;-53
2023/05/04 04:47:36;;;;;;;5.20;2.87;;;8.00;99.90;;;;;;5199818;28;20611;-50
2023/05/04 04:50:07;;;;;;;8.60;2.70;;;8.50;99.90;;;;;;5213720;28;20442;-51
2023/05/04 04:52:40;;;;;;;11.10;3.57;;;8.70;99.90;;;;;;5218439;28;20203;-50
2023/05/04 04:55:10;;;;;;;9.93;3.90;;;8.70;99.90;;;;;;5202932;28;20466;-51
2023/05/04 04:57:41;;;;;;;13.73;3.70;;;8.50;99.90;;;;;;5202523;28;20453;-53
2023/05/04 05:00:13;;;;;;;8.20;2.80;;;8.30;99.90;;;;;;5199814;28;20202;-53
2023/05/04 05:02:44;;;;;;;10.03;2.97;;;8.60;99.90;;;;;;5200879;28;20594;-49
2023/05/04 05:05:15;;;;;;;8.20;3.43;;;9.20;99.90;;;;;;5200490;28;20533;-51
2023/05/04 05:07:46;;;;;;;17.60;3.53;;;9.40;99.90;;;;;;5204110;28;20418;-52
2023/05/04 05:10:17;;;;;;;7.53;3.00;;;9.60;99.90;;;;;;5200376;28;20506;-51
2023/05/04 05:12:51;;;;;;;6.77;3.23;;;10.70;99.90;;;;;;5197782;28;20473;-51
2023/05/04 05:15:21;;;;;;;6.23;3.33;;;12.50;96.00;;;;;;5199551;28;20253;-50
2023/05/04 05:17:52;;;;;;;7.10;2.90;;;14.30;77.80;;;;;;5205038;28;20438;-51
2023/05/04 05:20:22;;;;;;;6.27;2.67;;;15.60;63.70;;;;;;5205541;28;20266;-51
2023/05/04 05:22:53;;;;;;;5.97;2.53;;;16.60;56.10;;;;;;5206975;28;20534;-50
2023/05/04 05:25:24;;;;;;;7.67;3.00;;;17.10;53.00;;;;;;5203990;28;20202;-50
2023/05/04 05:27:55;;;;;;;5.03;2.77;;;17.80;51.10;;;;;;5210081;28;20222;-50
2023/05/04 05:30:27;;;;;;;4.60;2.70;;;18.50;47.50;;;;;;5214717;28;20438;-51
2023/05/04 05:32:57;;;;;;;3.27;2.53;;;19.00;46.30;;;;;;5199671;28;20176;-50
2023/05/04 05:35:28;;;;;;;6.93;2.63;;;19.50;43.90;;;;;;5203371;28;20510;-51
2023/05/04 05:37:59;;;;;;;9.30;3.70;;;19.30;43.00;;;;;;5218466;28;20180;-50
2023/05/04 05:40:30;;;;;;;10.87;3.60;;;19.50;42.50;;;;;;5189167;28;20180;-50
2023/05/04 05:43:01;;;;;;;7.83;3.03;;;19.70;42.00;;;;;;5200623;28;20199;-51
2023/05/04 05:45:31;;;;;;;7.47;2.90;;;19.70;41.40;;;;;;5210625;28;20469;-50
2023/05/04 05:48:02;;;;;;;9.80;2.93;;;20.10;41.00;;;;;;5212187;28;20747;-50
2023/05/04 05:50:33;;;;;;;5.57;3.90;;;21.20;40.60;;;;;;5202579;28;20171;-50
2023/05/04 05:53:04;;;;;;;10.20;3.23;;;21.60;38.30;;;;;;5201527;28;20176;-51
2023/05/04 05:55:34;;;;;;;14.60;3.97;;;21.40;38.00;;;;;;5205352;28;20196;-51
2023/05/04 05:58:05;;;;;;;12.80;3.17;;;21.40;37.70;;;;;;5204302;28;20675;-50
2023/05/04 06:00:36;;;;;;;4.50;3.30;;;21.80;37.40;;;;;;5183790;28;20186;-50
2023/05/04 06:03:06;;;;;;;16.93;4.10;;;22.30;36.70;;;;;;5204064;28;20188;-51
2023/05/04 06:05:37;;;;;;;14.00;3.37;;;22.90;35.90;;;;;;5203316;28;20671;-49
2023/05/04 06:08:08;;;;;;;4.47;3.07;;;24.50;34.70;;;;;;5203411;28;20183;-52
2023/05/04 06:10:38;;;;;;;4.63;3.40;;;25.10;32.70;;;;;;5206562;28;20246;-51
2023/05/04 06:13:09;;;;;;;5.83;3.37;;;25.70;31.30;;;;;;5203256;28;20171;-51
2023/05/04 06:15:39;;;;;;;5.10;3.43;;;25.60;30.90;;;;;;5203960;28;20626;-51
2023/05/04 06:18:10;;;;;;;5.37;3.33;;;25.10;30.70;;;;;;5202106;28;20251;-51
2023/05/04 06:20:41;;;;;;;7.00;3.23;;;25.90;30.70;;;;;;5204263;28;20210;-52
2023/05/04 06:23:13;;;;;;;6.33;2.90;;;27.40;29.60;;;;;;5206538;28;20194;-51
2023/05/04 06:25:44;;;;;;;6.93;3.67;;;27.60;28.20;;;;;;5201481;28;20203;-51
2023/05/04 06:28:15;;;;;;;4.67;3.13;;;28.30;28.10;;;;;;5203160;28;20964;-52
2023/05/04 06:30:45;;;;;;;4.60;3.53;;;29.40;27.20;;;;;;5204618;28;20199;-52
2023/05/04 06:33:16;;;;;;;9.33;2.50;;;30.40;26.20;;;;;;5183567;28;20179;-52
2023/05/04 06:35:47;;;;;;;3.80;3.00;;;29.70;25.80;;;;;;5209604;28;20551;-50
2023/05/04 06:38:17;;;;;;;7.63;3.60;;;30.20;26.30;;;;;;5200698;28;20179;-50
2023/05/04 06:40:48;;;;;;;3.40;2.27;;;30.30;25.20;;;;;;5204371;28;20191;-51
2023/05/04 06:43:19;;;;;;;5.23;2.50;;;29.30;25.80;;;;;;5200724;28;20191;-52
2023/05/04 06:45:50;;;;;;;3.80;2.63;;;29.80;26.00;;;;;;5204503;28;20564;-51
2023/05/04 06:48:21;;;;;;;4.10;3.03;;;30.80;25.40;;;;;;5197451;28;20267;-51
2023/05/04 06:50:52;;;;;;;8.60;3.57;;;31.90;24.00;;;;;;5203848;28;20222;-51
2023/05/04 06:53:23;;;;;;;12.17;3.83;;;32.10;23.80;;;;;;5198260;28;20443;-50
2023/05/04 06:55:54;;;;;;;7.40;3.37;;;30.20;24.60;;;;;;5204692;28;20191;-51
2023/05/04 06:58:25;;;;;;;5.30;2.53;;;29.20;25.50;;;;;;5209569;28;20439;-49
2023/05/04 07:00:55;;;;;;;5.80;3.00;;;29.60;25.60;;;;;;5202736;28;20180;-52
2023/05/04 07:03:26;;;;;;;9.63;3.07;;;30.70;25.00;;;;;;5181161;28;20191;-51
2023/05/04 07:05:57;;;;;;;9.10;2.37;;;30.00;24.20;;;;;;5203181;28;20735;-51
2023/05/04 07:08:27;;;;;;;4.53;2.30;;;29.40;25.00;;;;;;5210664;28;20184;-52
2023/05/04 07:10:58;;;;;;;6.73;3.20;;;29.20;25.50;;;;;;5213145;28;20250;-51
2023/05/04 07:13:29;;;;;;;6.53;3.13;;;30.30;24.80;;;;;;5204961;28;20187;-51
2023/05/04 07:15:59;;;;;;;9.90;3.40;;;30.50;24.40;;;;;;5203735;28;20226;-51
2023/05/04 07:18:30;;;;;;;3.80;2.90;;;30.00;24.70;;;;;;5202263;28;20183;-51
2023/05/04 07:21:01;;;;;;;8.43;3.20;;;30.30;24.70;;;;;;5204518;28;20568;-52
2023/05/04 07:23:31;;;;;;;6.10;3.30;;;30.90;24.10;;;;;;5205207;28;20192;-54
2023/05/04 07:26:03;;;;;;;9.90;3.67;;;31.50;23.70;;;;;;5204303;28;20230;-50
2023/05/04 07:28:33;;;;;;;5.70;2.47;;;31.80;23.40;;;;;;5202819;28;20257;-52
2023/05/04 07:31:04;;;;;;;3.67;2.90;;;32.10;23.10;;;;;;5198889;28;20919;-50
2023/05/04 07:33:35;;;;;;;9.07;3.50;;;31.60;23.10;;;;;;5188396;28;20176;-51
2023/05/04 07:36:06;;;;;;;8.17;3.00;;;30.90;23.40;;;;;;5211892;28;20625;-50
2023/05/04 07:38:36;;;;;;;4.70;2.97;;;31.20;24.00;;;;;;5206631;28;20176;-50
2023/05/04 07:41:07;;;;;;;3.10;2.40;;;31.90;22.90;;;;;;5203719;28;20667;-50
2023/05/04 07:43:37;;;;;;;6.73;3.03;;;31.30;23.10;;;;;;5196652;28;20321;-50
2023/05/04 07:46:08;;;;;;;8.43;2.93;;;31.30;23.20;;;;;;5200277;28;20624;-51
2023/05/04 07:48:39;;;;;;;3.43;2.57;;;29.80;23.50;;;;;;5210941;28;20282;-50
2023/05/04 07:51:13;;;;;;;9.20;3.03;;;28.80;24.90;;;;;;5199715;28;20558;-50
2023/05/04 07:53:44;;;;;;;4.20;2.80;;;29.00;25.40;;;;;;5199655;28;20179;-50
2023/05/04 07:56:15;;;;;;;8.80;2.90;;;29.90;24.00;;;;;;5201679;28;20450;-52
2023/05/04 07:58:46;;;;;;;8.30;3.33;;;29.30;23.80;;;;;;5202336;28;20270;-50
2023/05/04 08:01:17;;;;;;;6.70;2.60;;;28.60;24.70;;;;;;5198490;28;20238;-51
2023/05/04 08:03:48;;;;;;;4.87;2.93;;;28.20;24.80;;;;;;5197147;28;20430;-52
2023/05/04 08:06:18;;;;;;;8.13;2.40;;;28.30;24.80;;;;;;5208334;28;20466;-51
2023/05/04 08:08:49;;;;;;;4.00;2.10;;;28.40;24.70;;;;;;5202816;28;20180;-52
2023/05/04 08:11:20;;;;;;;6.43;2.30;;;28.30;24.90;;;;;;5200533;28;20206;-52
2023/05/04 08:13:51;;;;;;;4.40;3.00;;;28.80;25.00;;;;;;5201059;28;20203;-52
2023/05/04 08:16:21;;;;;;;4.63;2.60;;;30.00;24.10;;;;;;5197745;28;20277;-52
2023/05/04 08:18:52;;;;;;;3.87;2.37;;;30.70;23.20;;;;;;5202185;28;20553;-51
2023/05/04 08:21:23;;;;;;;7.00;2.10;;;30.70;22.90;;;;;;5199132;28;20188;-51
2023/05/04 08:23:54;;;;;;;14.03;2.90;;;29.90;23.40;;;;;;5212032;28;20230;-50
2023/05/04 08:26:25;;;;;;;4.97;2.43;;;29.30;23.90;;;;;;5199522;28;20643;-51
2023/05/04 08:29:09;;;;;;;9.63;2.60;;;29.70;23.70;;;;;;5203910;28;20183;-53
2023/05/04 08:31:41;;;;;;;5.90;2.60;;;29.90;23.50;;;;;;5210176;28;20457;-54
2023/05/04 08:34:11;;;;;;;9.23;2.23;;;29.00;24.20;;;;;;5199705;28;20772;-51
2023/05/04 08:36:42;;;;;;;3.10;1.93;;;28.30;23.90;;;;;;5198962;28;20449;-51
2023/05/04 08:39:13;;;;;;;5.20;2.37;;;28.20;25.00;;;;;;5197653;28;20190;-50
2023/05/04 08:41:43;;;;;;;4.30;2.50;;;27.70;24.80;;;;;;5211627;28;20548;-51
2023/05/04 08:44:17;;;;;;;6.03;3.07;;;26.00;25.90;;;;;;5197568;28;20310;-50
2023/05/04 08:46:52;;;;;;;3.47;1.93;;;24.20;27.30;;;;;;5202602;28;20183;-50
2023/05/04 08:49:23;;;;;;;3.50;2.87;;;22.30;28.90;;;;;;5208476;28;20867;-50
2023/05/04 08:51:56;;;;;;;4.27;2.60;;;21.30;29.70;;;;;;5209685;28;20466;-50
2023/05/04 08:54:27;;;;;;;4.13;2.00;;;21.30;30.20;;;;;;5204632;28;20484;-52
2023/05/04 08:56:58;;;;;;;5.43;2.40;;;21.60;30.30;;;;;;5204514;28;21013;-50
2023/05/04 08:59:30;;;;;;;1.93;1.77;;;21.70;30.10;;;;;;5208286;28;20510;-51
2023/05/04 09:02:01;;;;;;;6.20;1.80;;;21.40;30.20;;;;;;5207459;28;20191;-50
2023/05/04 09:04:32;;;;;;;2.60;1.70;;;20.50;30.80;;;;;;5205131;28;20426;-51
2023/05/04 09:07:03;;;;;;;2.40;2.20;;;19.50;32.10;;;;;;5217190;28;20191;-52
2023/05/04 09:09:34;;;;;;;5.20;2.10;;;19.00;33.30;;;;;;5189682;28;20775;-50
2023/05/04 09:12:04;;;;;;;6.57;2.60;;;18.80;33.50;;;;;;5204812;28;20227;-50
2023/05/04 09:14:35;;;;;;;5.10;2.30;;;18.40;34.60;;;;;;5207377;28;20795;-50
2023/05/04 09:17:16;;;;;;;3.70;2.20;;;18.20;34.60;;;;;;5206132;28;20179;-51
2023/05/04 09:19:56;;;;;;;2.77;2.50;;;17.90;35.10;;;;;;5201790;28;20934;-52
2023/05/04 09:22:28;;;;;;;5.20;2.13;;;17.90;35.80;;;;;;5204377;28;20480;-52
2023/05/04 09:25:12;;;;;;;9.30;2.57;;;18.00;35.70;;;;;;5203623;28;20516;-50
2023/05/04 09:27:53;;;;;;;5.77;2.73;;;18.00;35.20;;;;;;5198278;28;20814;-50
2023/05/04 09:30:24;;;;;;;4.10;2.20;;;17.90;34.70;;;;;;5205571;28;20489;-52
2023/05/04 09:32:54;;;;;;;5.07;2.67;;;18.10;34.80;;;;;;5203652;28;20423;-52
2023/05/04 09:35:29;;;;;;;6.57;2.70;;;18.10;34.50;;;;;;5206233;28;20203;-51
2023/05/04 09:38:00;;;;;;;5.87;2.47;;;18.30;34.60;;;;;;5203984;28;20183;-50
2023/05/04 09:40:40;;;;;;;3.80;2.70;;;18.20;34.70;;;;;;5204571;28;21832;-50
2023/05/04 09:43:12;;;;;;;2.73;2.40;;;18.10;34.30;;;;;;5206167;28;20437;-50
2023/05/04 09:45:44;;;;;;;4.30;2.63;;;17.70;34.50;;;;;;5201820;28;20577;-50
2023/05/04 09:48:25;;;;;;;2.77;2.20;;;17.80;35.00;;;;;;5206279;28;20442;-53
2023/05/04 09:50:58;;;;;;;8.40;2.60;;;18.10;34.40;;;;;;5207747;28;20498;-51
2023/05/04 09:53:30;;;;;;;6.53;2.20;;;18.40;34.70;;;;;;5207282;28;20923;-54
2023/05/04 09:56:28;;;;;;;4.70;2.10;;;18.60;34.50;;;;;;5200533;28;20462;-52
2023/05/04 09:58:58;;;;;;;2.13;2.03;;;18.60;34.20;;;;;;5204749;28;20430;-49
2023/05/04 10:01:29;;;;;;;6.00;2.70;;;18.50;34.60;;;;;;5206178;28;20446;-49
2023/05/04 10:04:01;;;;;;;4.33;2.67;;;18.30;34.30;;;;;;5206136;28;20182;-51
2023/05/04 10:06:33;;;;;;;7.40;2.90;;;18.30;34.80;;;;;;5205166;28;20867;-51
2023/05/04 10:09:04;;;;;;;2.80;2.33;;;18.40;35.00;;;;;;5208237;28;20791;-51
2023/05/04 10:11:36;;;;;;;7.23;3.20;;;18.10;34.90;;;;;;5206279;28;20461;-51
2023/05/04 10:14:07;;;;;;;8.57;3.27;;;17.90;35.10;;;;;;5203431;28;20431;-49
2023/05/04 10:16:50;;;;;;;5.23;2.47;;;17.80;35.00;;;;;;5212761;28;20500;-51
2023/05/04 10:20:03;;;;;;;6.30;2.93;;;17.70;35.90;;;;;;5205339;28;20184;-51
2023/05/04 10:22:46;;;;;;;8.57;3.40;;;17.60;35.00;;;;;;5204646;28;20434;-51
2023/05/04 10:25:55;;;;;;;6.90;2.73;;;17.70;35.50;;;;;;5205942;28;20469;-51
2023/05/04 10:28:48;;;;;;;2.57;2.47;;;17.70;35.30;;;;;;5188890;28;20537;-50
2023/05/04 10:31:20;;;;;;;14.50;3.40;;;17.60;34.70;;;;;;5199669;28;20466;-51
2023/05/04 10:33:50;;;;;;;4.07;2.47;;;17.60;34.90;;;;;;5201658;28;20439;-50
2023/05/04 10:36:21;;;;;;;2.27;2.10;;;17.60;34.80;;;;;;5201731;28;20478;-51
2023/05/04 10:38:52;;;;;;;3.60;2.27;;;17.60;34.80;;;;;;5202826;28;20271;-52
2023/05/04 10:41:22;;;;;;;6.73;2.43;;;17.60;34.70;;;;;;5203059;28;20613;-51
2023/05/04 10:44:02;;;;;;;5.07;2.40;;;17.60;34.50;;;;;;5200163;28;20208;-50
2023/05/04 10:46:33;;;;;;;4.33;2.33;;;17.80;34.50;;;;;;5205008;28;20215;-52
2023/05/04 10:49:15;;;;;;;4.20;2.50;;;18.30;34.70;;;;;;5202091;28;20449;-50
2023/05/04 10:51:45;;;;;;;6.50;2.43;;;18.60;34.20;;;;;;5197443;28;20536;-52
2023/05/04 10:54:20;;;;;;;3.40;2.47;;;18.40;33.60;;;;;;5200670;28;20443;-51
2023/05/04 10:57:01;;;;;;;3.50;3.10;;;18.50;34.10;;;;;;5204423;28;20187;-53
2023/05/04 10:59:32;;;;;;;2.70;2.50;;;18.50;32.90;;;;;;5201143;28;20517;-50
2023/05/04 11:02:04;;;;;;;8.60;2.50;;;18.40;33.40;;;;;;5216070;28;20446;-52
2023/05/04 11:04:36;;;;;;;11.50;2.77;;;18.30;32.90;;;;;;5210971;28;20565;-52
2023/05/04 11:07:07;;;;;;;3.20;2.90;;;18.40;33.30;;;;;;5202251;28;20466;-51
2023/05/04 11:09:41;;;;;;;3.60;2.20;;;18.70;34.20;;;;;;5203333;28;20472;-54
2023/05/04 11:12:13;;;;;;;5.27;2.63;;;18.80;33.40;;;;;;5202098;28;20572;-53
2023/05/04 11:14:44;;;;;;;5.70;2.70;;;18.90;33.30;;;;;;5206854;28;20485;-51
2023/05/04 11:17:15;;;;;;;10.50;3.20;;;19.20;33.90;;;;;;5201475;28;20918;-50
2023/05/04 11:19:49;;;;;;;4.77;2.50;;;19.10;32.60;;;;;;5201166;28;20710;-51
2023/05/04 11:22:20;;;;;;;1.30;1.30;;;18.80;32.70;;;;;;5202231;28;20236;-51
2023/05/04 11:24:51;;;;;;;9.83;2.90;;;18.70;33.10;;;;;;5210796;28;20545;-51
2023/05/04 11:27:24;;;;;;;6.90;2.83;;;18.90;33.40;;;;;;5198711;28;20759;-51
2023/05/04 11:29:58;;;;;;;8.90;2.90;;;18.60;33.00;;;;;;5219816;28;20832;-51
2023/05/04 11:32:36;;;;;;;6.90;3.07;;;18.50;34.50;;;;;;5202110;28;20504;-50
2023/05/04 11:35:08;;;;;;;2.80;2.50;;;18.80;34.40;;;;;;5213917;28;20462;-51
2023/05/04 11:37:43;;;;;;;4.83;3.23;;;19.20;33.40;;;;;;5198785;28;20438;-52
2023/05/04 11:40:25;;;;;;;2.03;1.90;;;19.60;33.20;;;;;;5201795;28;20909;-51
2023/05/04 11:42:57;;;;;;;3.60;3.00;;;19.90;32.70;;;;;;5201661;28;20439;-49
2023/05/04 11:45:36;;;;;;;4.83;2.50;;;20.10;31.60;;;;;;5200536;28;20480;-53
2023/05/04 11:48:07;;;;;;;7.60;2.93;;;20.30;30.90;;;;;;5203447;28;20435;-52
2023/05/04 11:50:38;;;;;;;4.60;2.13;;;19.80;30.80;;;;;;5219584;28;20431;-50
2023/05/04 11:53:12;;;;;;;5.70;2.30;;;19.70;31.10;;;;;;5201309;28;20765;-52
2023/05/04 11:55:42;;;;;;;4.97;2.80;;;20.00;31.60;;;;;;5194531;28;20254;-52
2023/05/04 11:58:14;;;;;;;5.40;2.40;;;20.20;31.00;;;;;;5201863;28;20813;-52
2023/05/04 12:00:47;;;;;;;3.43;3.13;;;20.50;30.90;;;;;;5197290;28;20188;-50
2023/05/04 12:03:26;;;;;;;2.87;2.53;;;20.80;30.60;;;;;;5199231;28;20434;-51
2023/05/04 12:05:58;;;;;;;4.47;2.87;;;21.10;30.50;;;;;;5202116;28;20440;-50
2023/05/04 12:08:31;;;;;;;6.13;2.17;;;21.50;30.00;;;;;;5203232;28;20422;-51
2023/05/04 12:11:13;;;;;;;3.50;2.27;;;21.40;29.80;;;;;;5201569;28;20938;-51
2023/05/04 12:13:46;;;;;;;7.50;2.30;;;21.30;30.10;;;;;;5198518;28;20462;-51
2023/05/04 12:16:18;;;;;;;6.10;2.37;;;21.20;30.20;;;;;;5214530;28;20974;-50
2023/05/04 12:18:48;;;;;;;5.03;3.17;;;21.10;30.40;;;;;;5200571;28;20488;-51
2023/05/04 12:21:22;;;;;;;3.23;2.93;;;20.80;30.40;;;;;;5199507;28;20450;-50
2023/05/04 12:23:55;;;;;;;2.60;2.40;;;20.40;29.90;;;;;;5219100;28;20341;-51
2023/05/04 12:26:26;;;;;;;4.23;2.90;;;20.20;30.00;;;;;;5206340;28;20485;-50
2023/05/04 12:28:57;;;;;;;5.70;3.27;;;20.20;30.80;;;;;;5206371;28;20503;-51
2023/05/04 12:31:29;;;;;;;4.17;2.90;;;20.00;31.00;;;;;;5216144;28;20454;-50
2023/05/04 12:33:59;;;;;;;4.13;3.13;;;19.50;31.80;;;;;;5204708;28;20669;-51
2023/05/04 12:36:30;;;;;;;2.20;2.10;;;19.30;32.00;;;;;;5207202;28;20450;-53
2023/05/04 12:39:01;;;;;;;2.90;2.13;;;19.00;32.20;;;;;;5203465;28;20188;-52
2023/05/04 12:41:31;;;;;;;3.67;2.63;;;19.00;32.30;;;;;;5207359;28;20297;-51
2023/05/04 12:44:02;;;;;;;13.67;3.10;;;19.10;32.70;;;;;;5204320;28;20187;-52
2023/05/04 12:46:33;;;;;;;6.97;3.10;;;19.10;32.70;;;;;;5207412;28;20214;-49
2023/05/04 12:49:03;;;;;;;2.73;2.27;;;19.00;32.50;;;;;;5201735;28;20496;-51
2023/05/04 12:51:34;;;;;;;5.20;2.30;;;19.40;32.10;;;;;;5205463;28;20207;-50
2023/05/04 12:54:05;;;;;;;7.63;2.70;;;19.90;32.00;;;;;;5205023;28;20225;-51
2023/05/04 12:56:38;;;;;;;2.87;2.50;;;20.40;31.40;;;;;;5219783;28;20254;-50
2023/05/04 12:59:09;;;;;;;2.30;2.20;;;20.70;30.80;;;;;;5202058;28;20519;-51
2023/05/04 13:01:40;;;;;;;5.43;2.40;;;20.90;30.30;;;;;;5202395;28;20557;-50
2023/05/04 13:04:11;;;;;;;2.90;2.70;;;20.80;30.00;;;;;;5215647;28;20500;-50
2023/05/04 13:06:41;;;;;;;12.40;2.50;;;20.40;30.40;;;;;;5202472;28;20567;-49
2023/05/04 13:09:12;;;;;;;7.43;3.10;;;20.00;30.30;;;;;;5205673;28;20184;-51
2023/05/04 13:11:43;;;;;;;3.30;2.67;;;19.70;31.10;;;;;;5204439;28;20226;-50
2023/05/04 13:14:14;;;;;;;2.53;2.43;;;19.80;30.90;;;;;;5212516;28;20659;-51